Auburndale, Florida
Current Conditions -  °F | °C
As of 10:53 AM on Sunday 25 Jan 2015 (Local Time) from KGIF Reporting Station
Clear Clear  
Wind Chill: 57°   Ceiling: Unl
Heat Index: 57°   Visibility: 10mi
Dew Point: 34°   Wind: 9mph
Humidity: 42%   Direction: 350°N
Pressure: 30.12"   Gusts: NA
Location:  28.06°N, 81.78°W
Report Text: KGIF 251553Z AUTO 35008KT 10SM CLR 14/01 A3012 RMK AO2 SLP197 T01390011
Loading
Personal Weather Stations






























Interactive Weather Map New forecast layout! Learn more

10-Day Weather Forecast

Advertisements
Track Severe Weather on mobile